createdAt,value
2018-03-08T00:01:22.544Z,99628.49
2018-03-08T00:06:17.119Z,99639.14
2018-03-08T00:11:11.429Z,99639.45
2018-03-08T00:16:05.784Z,99637.13
2018-03-08T00:21:01.000Z,99651.04
2018-03-08T00:25:55.521Z,99648.22
2018-03-08T00:30:50.624Z,99658.20
2018-03-08T00:35:45.748Z,99666.39
2018-03-08T00:40:40.096Z,99679.22
2018-03-08T00:45:34.749Z,99682.38
2018-03-08T00:50:29.093Z,99683.97
2018-03-08T00:55:23.584Z,99687.23
2018-03-08T01:00:18.546Z,99694.57
2018-03-08T01:05:12.965Z,99693.98
2018-03-08T01:10:07.388Z,99705.19
2018-03-08T01:15:02.636Z,99707.31
2018-03-08T01:19:56.996Z,99708.72
2018-03-08T01:24:51.604Z,99709.33
2018-03-08T01:29:46.715Z,99717.70
2018-03-08T01:34:41.857Z,99720.70
2018-03-08T01:39:36.525Z,99717.87
2018-03-08T01:44:30.861Z,99722.39
2018-03-08T01:49:25.433Z,99715.55
2018-03-08T01:54:21.636Z,99720.16
2018-03-08T01:59:16.861Z,99720.78
2018-03-08T02:04:11.236Z,99718.74
2018-03-08T02:09:05.881Z,99718.10
2018-03-08T02:14:00.440Z,99719.20
2018-03-08T02:18:54.784Z,99730.72
2018-03-08T02:23:50.247Z,99730.91
2018-03-08T02:28:44.605Z,99731.59
2018-03-08T02:33:39.797Z,99733.58
2018-03-08T02:38:34.146Z,99736.13
2018-03-08T02:43:28.475Z,99743.89
2018-03-08T02:48:22.645Z,99745.98
2018-03-08T02:53:17.050Z,99735.98
2018-03-08T02:58:11.376Z,99741.06
2018-03-08T03:03:05.709Z,99734.91
2018-03-08T03:08:00.309Z,99740.65
2018-03-08T03:12:54.853Z,99751.37
2018-03-08T03:17:49.938Z,99745.11
2018-03-08T03:22:44.272Z,99740.19
2018-03-08T03:27:39.871Z,99746.14
2018-03-08T03:32:34.206Z,99754.59
2018-03-08T03:37:29.344Z,99748.77
2018-03-08T03:42:23.666Z,99745.88
2018-03-08T03:47:18.008Z,99748.28
2018-03-08T03:52:12.333Z,99750.23
2018-03-08T03:57:07.436Z,99740.11
2018-03-08T04:02:01.759Z,99749.25
2018-03-08T04:06:57.058Z,99745.30
2018-03-08T04:11:51.377Z,99738.19
2018-03-08T04:16:46.463Z,99742.90
2018-03-08T04:21:40.810Z,99742.67
2018-03-08T04:26:35.883Z,99748.85
2018-03-08T04:31:30.274Z,99754.38
2018-03-08T04:36:24.617Z,99747.42
2018-03-08T04:41:19.709Z,99751.37
2018-03-08T04:46:14.030Z,99755.22
2018-03-08T04:51:09.104Z,99757.82
2018-03-08T04:56:03.419Z,99769.23
2018-03-08T05:00:57.805Z,99773.00
2018-03-08T05:05:52.205Z,99766.55
2018-03-08T05:10:47.444Z,99761.95
2018-03-08T05:15:41.799Z,99767.33
2018-03-08T05:20:36.116Z,99770.90
2018-03-08T05:25:30.576Z,99769.81
2018-03-08T05:30:25.163Z,99768.81
2018-03-08T05:35:19.478Z,99770.93
2018-03-08T05:40:13.791Z,99779.20
2018-03-08T05:45:08.352Z,99781.03
2018-03-08T05:50:02.678Z,99784.52
2018-03-08T05:54:57.004Z,99799.24
2018-03-08T05:59:51.339Z,99807.30
2018-03-08T06:04:46.614Z,99810.99
2018-03-08T06:09:41.202Z,99817.25
2018-03-08T06:14:35.719Z,99820.80
2018-03-08T06:19:30.040Z,99819.11
2018-03-08T06:24:26.638Z,99828.13
2018-03-08T06:29:21.059Z,99816.41
2018-03-08T06:34:15.391Z,99817.33
2018-03-08T06:39:09.737Z,99822.52
2018-03-08T06:44:04.364Z,99811.93
2018-03-08T06:48:58.433Z,99806.88
2018-03-08T06:53:53.521Z,99804.91
2018-03-08T06:58:48.209Z,99810.36
2018-03-08T07:03:42.560Z,99806.91
2018-03-08T07:08:37.677Z,99810.41
2018-03-08T07:13:32.770Z,99803.99
2018-03-08T07:18:27.275Z,99799.27
2018-03-08T07:23:21.622Z,99803.77
2018-03-08T07:28:15.957Z,99817.09
2018-03-08T07:33:10.554Z,99823.42
2018-03-08T07:38:04.974Z,99828.25
2018-03-08T07:42:59.341Z,99819.56
2018-03-08T07:47:53.671Z,99808.26
2018-03-08T07:52:47.994Z,99805.29
2018-03-08T07:57:42.445Z,99794.42
2018-03-08T08:02:37.044Z,99788.53
2018-03-08T08:07:49.039Z,99771.69
2018-03-08T08:12:43.668Z,99774.31
2018-03-08T08:17:39.372Z,99767.09
2018-03-08T08:22:34.020Z,99774.49
2018-03-08T08:27:28.380Z,99760.66
2018-03-08T08:32:23.569Z,99767.70
2018-03-08T08:37:17.899Z,99770.43
2018-03-08T08:42:12.238Z,99774.66
2018-03-08T08:47:07.305Z,99767.23
2018-03-08T08:52:01.635Z,99758.72
2018-03-08T08:56:56.060Z,99758.93
2018-03-08T09:01:51.511Z,99751.29
2018-03-08T09:06:45.941Z,99751.83
2018-03-08T09:11:40.499Z,99755.19
2018-03-08T09:16:34.860Z,99746.84
2018-03-08T09:21:29.246Z,99743.34
2018-03-08T09:26:23.851Z,99733.97
2018-03-08T09:31:18.204Z,99723.00
2018-03-08T09:36:13.383Z,99715.92
2018-03-08T09:41:07.725Z,99720.23
2018-03-08T09:46:02.817Z,99719.95
2018-03-08T09:50:57.198Z,99711.33
2018-03-08T09:55:51.550Z,99710.98
2018-03-08T10:00:46.719Z,99707.69
2018-03-08T10:05:41.043Z,99710.59
2018-03-08T10:10:36.069Z,99707.88
2018-03-08T10:15:30.537Z,99698.97
2018-03-08T10:20:24.843Z,99687.34
2018-03-08T10:25:19.386Z,99679.25
2018-03-08T10:30:13.721Z,99675.45
2018-03-08T10:35:09.029Z,99673.99
2018-03-08T10:40:03.918Z,99674.39
2018-03-08T10:44:58.260Z,99663.44
2018-03-08T10:49:53.383Z,99667.63
2018-03-08T10:54:47.715Z,99664.21
2018-03-08T10:59:42.026Z,99658.72
2018-03-08T11:04:36.142Z,99661.16
2018-03-08T11:09:30.925Z,99651.02
2018-03-08T11:14:25.243Z,99638.28
2018-03-08T11:19:19.563Z,99634.83
2018-03-08T11:24:13.872Z,99628.62
2018-03-08T11:29:09.049Z,99619.03
2018-03-08T11:34:03.429Z,99617.54
2018-03-08T11:38:57.895Z,99609.94
2018-03-08T11:43:52.207Z,99611.28
2018-03-08T11:48:47.295Z,99601.88
2018-03-08T11:53:42.091Z,99605.94
2018-03-08T11:58:49.848Z,99597.86
2018-03-08T12:04:01.132Z,99599.44
2018-03-08T12:09:10.846Z,99583.16
2018-03-08T12:14:24.865Z,99581.16
2018-03-08T12:19:36.700Z,99573.16
2018-03-08T12:24:49.567Z,99564.36
2018-03-08T12:30:00.948Z,99555.38
2018-03-08T12:35:12.966Z,99547.07
2018-03-08T12:40:22.542Z,99535.86
2018-03-08T12:45:31.408Z,99529.09
2018-03-08T12:50:41.726Z,99531.11
2018-03-08T12:55:51.521Z,99527.67
2018-03-08T13:01:03.572Z,99523.17
2018-03-08T13:06:12.385Z,99521.02
2018-03-08T13:11:23.548Z,99517.39
2018-03-08T13:16:35.219Z,99510.08
2018-03-08T13:21:33.797Z,99500.56
2018-03-08T13:26:28.355Z,99505.32
2018-03-08T13:31:26.058Z,99502.29
2018-03-08T13:36:21.387Z,99492.69
2018-03-08T13:41:15.713Z,99479.06
2018-03-08T13:46:10.051Z,99466.97
2018-03-08T13:51:04.374Z,99467.77
2018-03-08T13:55:59.460Z,99480.28
2018-03-08T14:00:53.762Z,99489.30
2018-03-08T14:06:06.062Z,99485.30
2018-03-08T14:11:16.290Z,99478.97
2018-03-08T14:21:38.905Z,99469.28
2018-03-08T14:26:42.311Z,99469.44
2018-03-08T14:31:53.338Z,99471.27
2018-03-08T14:37:02.561Z,99467.50
2018-03-08T14:42:09.999Z,99466.05
2018-03-08T14:47:20.538Z,99480.68
2018-03-08T14:57:42.140Z,99460.13
2018-03-08T15:02:55.476Z,99447.05
2018-03-08T15:08:04.848Z,99429.98
2018-03-08T15:13:09.068Z,99422.13
2018-03-08T15:18:10.843Z,99418.58
2018-03-08T15:23:15.477Z,99426.95
2018-03-08T15:28:21.759Z,99436.58
2018-03-08T15:33:21.102Z,99452.67
2018-03-08T15:38:20.781Z,99470.14
2018-03-08T15:43:20.277Z,99496.23
2018-03-08T15:48:36.398Z,99510.28
2018-03-08T15:53:47.267Z,99525.23
2018-03-08T15:58:59.372Z,99528.05
2018-03-08T16:04:11.882Z,99558.69
2018-03-08T16:09:23.667Z,99564.95
2018-03-08T16:14:18.760Z,99597.86
2018-03-08T16:19:13.360Z,99560.22
2018-03-08T16:24:08.309Z,99547.44
2018-03-08T16:29:03.757Z,99522.67
2018-03-08T16:33:58.233Z,99503.11
2018-03-08T16:38:52.525Z,99521.98
2018-03-08T16:43:46.841Z,99516.13
2018-03-08T16:48:42.080Z,99536.53
2018-03-08T16:53:37.326Z,99559.31
2018-03-08T16:58:31.893Z,99546.88
2018-03-08T17:03:27.300Z,99545.22
2018-03-08T17:08:22.288Z,99546.73
2018-03-08T17:13:16.620Z,99563.16
2018-03-08T17:18:11.035Z,99556.22
2018-03-08T17:23:05.388Z,99560.09
2018-03-08T17:27:59.892Z,99559.50
2018-03-08T17:32:54.946Z,99564.72
2018-03-08T17:37:50.231Z,99573.59
2018-03-08T17:42:45.313Z,99586.53
2018-03-08T17:47:39.607Z,99589.25
2018-03-08T17:52:34.106Z,99612.25
2018-03-08T17:57:28.414Z,99624.29
2018-03-08T18:02:22.837Z,99636.90
2018-03-08T18:07:17.429Z,99638.08
2018-03-08T18:12:11.834Z,99651.92
2018-03-08T18:17:06.149Z,99647.78
2018-03-08T18:22:00.517Z,99654.76
2018-03-08T18:26:54.821Z,99663.28
2018-03-08T18:31:49.333Z,99669.66
2018-03-08T18:36:43.670Z,99669.98
2018-03-08T18:41:38.751Z,99675.92
2018-03-08T18:46:33.063Z,99681.58
2018-03-08T18:51:28.373Z,99690.57
2018-03-08T18:56:22.669Z,99690.47
2018-03-08T19:01:17.267Z,99694.11
2018-03-08T19:06:11.568Z,99704.43
2018-03-08T19:11:06.071Z,99698.98
2018-03-08T19:16:01.302Z,99718.59
2018-03-08T19:20:55.783Z,99724.55
2018-03-08T19:25:51.822Z,99733.20
2018-03-08T19:30:46.454Z,99750.58
2018-03-08T19:35:41.029Z,99758.73
2018-03-08T19:40:37.560Z,99770.97
2018-03-08T19:45:32.717Z,99776.64
2018-03-08T19:50:27.597Z,99782.42
2018-03-08T19:55:22.790Z,99793.27
2018-03-08T20:00:17.346Z,99805.50
2018-03-08T20:05:11.964Z,99806.65
2018-03-08T20:10:07.615Z,99818.65
2018-03-08T20:15:02.283Z,99830.59
2018-03-08T20:19:57.503Z,99834.91
2018-03-08T20:24:52.605Z,99844.84
2018-03-08T20:29:46.918Z,99851.88
2018-03-08T20:34:42.245Z,99859.30
2018-03-08T20:39:37.304Z,99867.32
2018-03-08T20:44:31.624Z,99873.08
2018-03-08T20:49:25.960Z,99876.66
2018-03-08T20:54:20.468Z,99874.19
2018-03-08T20:59:14.947Z,99884.93
2018-03-08T21:04:09.471Z,99881.56
2018-03-08T21:09:03.957Z,99896.52
2018-03-08T21:13:58.386Z,99900.52
2018-03-08T21:18:53.073Z,99905.78
2018-03-08T21:23:47.477Z,99909.78
2018-03-08T21:28:41.779Z,99916.91
2018-03-08T21:33:38.966Z,99924.86
2018-03-08T21:38:34.287Z,99928.51
2018-03-08T21:43:29.085Z,99934.78
2018-03-08T21:48:23.408Z,99940.92
2018-03-08T21:53:18.072Z,99955.41
2018-03-08T21:58:12.370Z,99961.22
2018-03-08T22:03:07.002Z,99967.34
2018-03-08T22:08:02.303Z,99976.61
2018-03-08T22:12:56.944Z,99974.14
2018-03-08T22:17:51.506Z,99981.77
2018-03-08T22:22:46.038Z,99980.63
2018-03-08T22:27:41.147Z,99990.16
2018-03-08T22:32:35.625Z,99999.56
2018-03-08T22:37:30.133Z,99999.82
2018-03-08T22:42:24.740Z,99995.48
2018-03-08T22:47:20.091Z,100003.91
2018-03-08T22:52:14.777Z,100005.27
2018-03-08T22:57:10.329Z,100005.79
2018-03-08T23:02:05.425Z,100009.39
2018-03-08T23:07:00.878Z,100010.76
2018-03-08T23:11:55.696Z,100027.79
2018-03-08T23:16:50.200Z,100025.56
2018-03-08T23:21:44.651Z,100032.10
2018-03-08T23:26:39.999Z,100035.22
2018-03-08T23:31:35.111Z,100043.23
2018-03-08T23:36:30.371Z,100051.23
2018-03-08T23:41:24.679Z,100056.98
2018-03-08T23:46:19.195Z,100056.72
2018-03-08T23:51:13.486Z,100056.36
2018-03-08T23:56:08.400Z,100065.68
